sensor_id;sensor_type;location;lat;lon;timestamp;temperature;humidity
69393;SHT31;56582;44.624;20.378;2023-04-01T00:00:53;14.21;65.01
69393;SHT31;56582;44.624;20.378;2023-04-01T00:03:20;14.32;66.33
69393;SHT31;56582;44.624;20.378;2023-04-01T00:05:46;14.29;65.80
69393;SHT31;56582;44.624;20.378;2023-04-01T00:08:12;14.28;64.76
69393;SHT31;56582;44.624;20.378;2023-04-01T00:10:37;14.33;64.59
69393;SHT31;56582;44.624;20.378;2023-04-01T00:13:03;14.22;64.88
69393;SHT31;56582;44.624;20.378;2023-04-01T00:15:28;14.24;65.34
69393;SHT31;56582;44.624;20.378;2023-04-01T00:17:54;14.17;67.13
69393;SHT31;56582;44.624;20.378;2023-04-01T00:20:20;14.11;66.95
69393;SHT31;56582;44.624;20.378;2023-04-01T00:22:46;14.02;68.25
69393;SHT31;56582;44.624;20.378;2023-04-01T00:25:11;14.04;68.72
69393;SHT31;56582;44.624;20.378;2023-04-01T00:27:37;14.02;69.76
69393;SHT31;56582;44.624;20.378;2023-04-01T00:30:03;14.11;69.70
69393;SHT31;56582;44.624;20.378;2023-04-01T00:32:28;14.02;69.34
69393;SHT31;56582;44.624;20.378;2023-04-01T00:34:54;13.82;68.58
69393;SHT31;56582;44.624;20.378;2023-04-01T00:37:20;13.90;67.05
69393;SHT31;56582;44.624;20.378;2023-04-01T00:39:46;13.95;67.12
69393;SHT31;56582;44.624;20.378;2023-04-01T00:42:12;14.00;67.22
69393;SHT31;56582;44.624;20.378;2023-04-01T00:44:39;14.04;67.70
69393;SHT31;56582;44.624;20.378;2023-04-01T00:47:05;14.08;66.78
69393;SHT31;56582;44.624;20.378;2023-04-01T00:49:33;14.07;67.42
69393;SHT31;56582;44.624;20.378;2023-04-01T00:52:02;14.04;68.33
69393;SHT31;56582;44.624;20.378;2023-04-01T00:54:29;14.05;68.27
69393;SHT31;56582;44.624;20.378;2023-04-01T00:56:58;14.12;68.20
69393;SHT31;56582;44.624;20.378;2023-04-01T00:59:30;14.17;68.43
69393;SHT31;56582;44.624;20.378;2023-04-01T01:01:56;13.97;68.86
69393;SHT31;56582;44.624;20.378;2023-04-01T01:04:30;14.04;68.32
69393;SHT31;56582;44.624;20.378;2023-04-01T01:15:20;14.09;68.80
69393;SHT31;56582;44.624;20.378;2023-04-01T01:34:24;13.67;69.29
69393;SHT31;56582;44.624;20.378;2023-04-01T01:37:00;13.77;69.23
69393;SHT31;56582;44.624;20.378;2023-04-01T01:39:28;13.74;69.13
69393;SHT31;56582;44.624;20.378;2023-04-01T01:42:02;13.73;69.03
69393;SHT31;56582;44.624;20.378;2023-04-01T01:44:29;13.70;69.30
69393;SHT31;56582;44.624;20.378;2023-04-01T01:46:56;13.71;69.61
69393;SHT31;56582;44.624;20.378;2023-04-01T01:49:22;13.70;70.08
69393;SHT31;56582;44.624;20.378;2023-04-01T01:51:48;13.77;70.12
69393;SHT31;56582;44.624;20.378;2023-04-01T01:54:15;13.71;70.28
69393;SHT31;56582;44.624;20.378;2023-04-01T01:56:43;13.71;70.71
69393;SHT31;56582;44.624;20.378;2023-04-01T01:59:11;13.71;69.63
69393;SHT31;56582;44.624;20.378;2023-04-01T02:01:41;13.60;70.92
69393;SHT31;56582;44.624;20.378;2023-04-01T02:04:08;13.60;71.67
69393;SHT31;56582;44.624;20.378;2023-04-01T02:06:37;13.42;71.79
69393;SHT31;56582;44.624;20.378;2023-04-01T02:09:05;13.27;73.29
69393;SHT31;56582;44.624;20.378;2023-04-01T02:11:56;13.27;73.34
69393;SHT31;56582;44.624;20.378;2023-04-01T02:17:22;13.29;71.78
69393;SHT31;56582;44.624;20.378;2023-04-01T02:20:01;13.27;71.27
69393;SHT31;56582;44.624;20.378;2023-04-01T02:22:33;13.27;71.71
69393;SHT31;56582;44.624;20.378;2023-04-01T02:25:03;13.23;71.90
69393;SHT31;56582;44.624;20.378;2023-04-01T02:27:30;13.29;71.98
69393;SHT31;56582;44.624;20.378;2023-04-01T02:29:56;13.36;73.04
69393;SHT31;56582;44.624;20.378;2023-04-01T02:32:23;13.18;73.11
69393;SHT31;56582;44.624;20.378;2023-04-01T02:34:49;13.09;73.63
69393;SHT31;56582;44.624;20.378;2023-04-01T02:37:15;13.08;73.89
69393;SHT31;56582;44.624;20.378;2023-04-01T02:39:41;13.09;73.03
69393;SHT31;56582;44.624;20.378;2023-04-01T02:42:08;13.08;73.60
69393;SHT31;56582;44.624;20.378;2023-04-01T02:44:34;13.12;73.66
69393;SHT31;56582;44.624;20.378;2023-04-01T02:46:59;13.11;73.19
69393;SHT31;56582;44.624;20.378;2023-04-01T02:49:25;13.15;73.85
69393;SHT31;56582;44.624;20.378;2023-04-01T02:51:50;13.13;73.65
69393;SHT31;56582;44.624;20.378;2023-04-01T02:54:17;13.20;73.10
69393;SHT31;56582;44.624;20.378;2023-04-01T02:56:42;13.29;72.88
69393;SHT31;56582;44.624;20.378;2023-04-01T02:59:08;13.20;73.00
69393;SHT31;56582;44.624;20.378;2023-04-01T03:01:33;13.02;74.38
69393;SHT31;56582;44.624;20.378;2023-04-01T03:03:59;13.15;74.04
69393;SHT31;56582;44.624;20.378;2023-04-01T03:06:24;13.12;75.56
69393;SHT31;56582;44.624;20.378;2023-04-01T03:08:50;13.11;76.77
69393;SHT31;56582;44.624;20.378;2023-04-01T03:11:15;12.99;77.50
69393;SHT31;56582;44.624;20.378;2023-04-01T03:13:41;12.81;79.32
69393;SHT31;56582;44.624;20.378;2023-04-01T03:16:06;12.71;79.69
69393;SHT31;56582;44.624;20.378;2023-04-01T03:18:32;12.67;80.66
69393;SHT31;56582;44.624;20.378;2023-04-01T03:21:21;12.82;81.68
69393;SHT31;56582;44.624;20.378;2023-04-01T03:23:47;13.08;80.18
69393;SHT31;56582;44.624;20.378;2023-04-01T03:26:12;13.42;79.92
69393;SHT31;56582;44.624;20.378;2023-04-01T03:28:38;13.50;79.93
69393;SHT31;56582;44.624;20.378;2023-04-01T03:31:04;13.88;79.12
69393;SHT31;56582;44.624;20.378;2023-04-01T03:33:30;13.92;79.02
69393;SHT31;56582;44.624;20.378;2023-04-01T03:35:56;13.47;78.85
69393;SHT31;56582;44.624;20.378;2023-04-01T03:38:21;13.63;79.85
69393;SHT31;56582;44.624;20.378;2023-04-01T03:40:47;13.29;79.57
69393;SHT31;56582;44.624;20.378;2023-04-01T03:43:12;13.05;80.58
69393;SHT31;56582;44.624;20.378;2023-04-01T03:45:49;12.95;80.17
69393;SHT31;56582;44.624;20.378;2023-04-01T03:48:14;12.69;81.55
69393;SHT31;56582;44.624;20.378;2023-04-01T03:50:40;12.51;82.10
69393;SHT31;56582;44.624;20.378;2023-04-01T03:53:06;12.40;81.85
69393;SHT31;56582;44.624;20.378;2023-04-01T03:55:32;12.36;82.29
69393;SHT31;56582;44.624;20.378;2023-04-01T03:57:59;12.14;83.05
69393;SHT31;56582;44.624;20.378;2023-04-01T04:00:24;11.78;83.66
69393;SHT31;56582;44.624;20.378;2023-04-01T04:02:50;11.90;84.15
69393;SHT31;56582;44.624;20.378;2023-04-01T04:05:15;11.76;84.41
69393;SHT31;56582;44.624;20.378;2023-04-01T04:07:41;11.89;83.57
69393;SHT31;56582;44.624;20.378;2023-04-01T04:10:07;11.86;83.61
69393;SHT31;56582;44.624;20.378;2023-04-01T04:12:32;11.89;84.23
69393;SHT31;56582;44.624;20.378;2023-04-01T04:14:58;11.75;84.74
69393;SHT31;56582;44.624;20.378;2023-04-01T04:17:23;11.76;85.17
69393;SHT31;56582;44.624;20.378;2023-04-01T04:19:49;11.81;85.44
69393;SHT31;56582;44.624;20.378;2023-04-01T04:22:14;11.65;85.67
69393;SHT31;56582;44.624;20.378;2023-04-01T04:24:40;11.59;86.54
69393;SHT31;56582;44.624;20.378;2023-04-01T04:27:05;11.76;86.16
69393;SHT31;56582;44.624;20.378;2023-04-01T04:29:30;11.86;86.21
69393;SHT31;56582;44.624;20.378;2023-04-01T04:31:56;11.75;86.52
69393;SHT31;56582;44.624;20.378;2023-04-01T04:34:21;11.65;87.19
69393;SHT31;56582;44.624;20.378;2023-04-01T04:36:48;11.61;87.62
69393;SHT31;56582;44.624;20.378;2023-04-01T04:39:13;11.52;87.78
69393;SHT31;56582;44.624;20.378;2023-04-01T04:41:39;11.32;87.91
69393;SHT31;56582;44.624;20.378;2023-04-01T04:44:04;11.31;88.71
69393;SHT31;56582;44.624;20.378;2023-04-01T04:46:30;11.25;88.83
69393;SHT31;56582;44.624;20.378;2023-04-01T04:48:56;11.20;89.04
69393;SHT31;56582;44.624;20.378;2023-04-01T04:51:22;11.21;88.90
69393;SHT31;56582;44.624;20.378;2023-04-01T04:53:48;11.32;88.66
69393;SHT31;56582;44.624;20.378;2023-04-01T04:56:18;11.28;88.63
69393;SHT31;56582;44.624;20.378;2023-04-01T04:58:43;11.24;88.68
69393;SHT31;56582;44.624;20.378;2023-04-01T05:01:11;11.18;89.01
69393;SHT31;56582;44.624;20.378;2023-04-01T05:03:37;11.16;89.41
69393;SHT31;56582;44.624;20.378;2023-04-01T05:06:03;11.30;88.96
69393;SHT31;56582;44.624;20.378;2023-04-01T05:08:29;11.21;89.12
69393;SHT31;56582;44.624;20.378;2023-04-01T05:10:55;11.23;89.22
69393;SHT31;56582;44.624;20.378;2023-04-01T05:13:20;11.28;88.94
69393;SHT31;56582;44.624;20.378;2023-04-01T05:15:46;11.27;88.68
69393;SHT31;56582;44.624;20.378;2023-04-01T05:18:11;11.13;89.43
69393;SHT31;56582;44.624;20.378;2023-04-01T05:20:36;11.17;89.70
69393;SHT31;56582;44.624;20.378;2023-04-01T05:23:02;11.16;89.60
69393;SHT31;56582;44.624;20.378;2023-04-01T05:25:27;11.10;89.66
69393;SHT31;56582;44.624;20.378;2023-04-01T05:27:53;10.97;89.99
69393;SHT31;56582;44.624;20.378;2023-04-01T05:30:18;10.92;90.26
69393;SHT31;56582;44.624;20.378;2023-04-01T05:32:44;10.89;90.41
69393;SHT31;56582;44.624;20.378;2023-04-01T05:35:10;11.03;90.17
69393;SHT31;56582;44.624;20.378;2023-04-01T05:37:36;11.06;90.15
69393;SHT31;56582;44.624;20.378;2023-04-01T05:40:05;11.04;90.54
69393;SHT31;56582;44.624;20.378;2023-04-01T05:42:31;10.86;90.98
69393;SHT31;56582;44.624;20.378;2023-04-01T05:44:56;10.83;91.12
69393;SHT31;56582;44.624;20.378;2023-04-01T05:47:22;10.79;91.79
69393;SHT31;56582;44.624;20.378;2023-04-01T05:49:48;10.86;91.67
69393;SHT31;56582;44.624;20.378;2023-04-01T05:52:13;10.95;91.55
69393;SHT31;56582;44.624;20.378;2023-04-01T05:54:39;11.01;91.47
69393;SHT31;56582;44.624;20.378;2023-04-01T05:57:04;10.96;91.03
69393;SHT31;56582;44.624;20.378;2023-04-01T05:59:29;11.08;90.64
69393;SHT31;56582;44.624;20.378;2023-04-01T06:01:56;11.10;90.87
69393;SHT31;56582;44.624;20.378;2023-04-01T06:04:22;11.10;90.88
69393;SHT31;56582;44.624;20.378;2023-04-01T06:06:48;10.96;90.79
69393;SHT31;56582;44.624;20.378;2023-04-01T06:09:21;11.13;91.01
69393;SHT31;56582;44.624;20.378;2023-04-01T06:31:12;10.89;91.91
69393;SHT31;56582;44.624;20.378;2023-04-01T06:50:29;10.48;94.00
69393;SHT31;56582;44.624;20.378;2023-04-01T06:53:21;10.41;94.07
69393;SHT31;56582;44.624;20.378;2023-04-01T06:56:01;10.46;93.97
69393;SHT31;56582;44.624;20.378;2023-04-01T06:58:33;10.49;93.59
69393;SHT31;56582;44.624;20.378;2023-04-01T07:01:03;10.58;93.57
69393;SHT31;56582;44.624;20.378;2023-04-01T07:03:48;10.59;93.64
69393;SHT31;56582;44.624;20.378;2023-04-01T07:06:28;10.70;93.45
69393;SHT31;56582;44.624;20.378;2023-04-01T07:08:58;10.77;93.57
69393;SHT31;56582;44.624;20.378;2023-04-01T07:11:31;10.83;93.86
69393;SHT31;56582;44.624;20.378;2023-04-01T07:14:02;10.93;93.82
69393;SHT31;56582;44.624;20.378;2023-04-01T07:21:51;11.28;93.42
69393;SHT31;56582;44.624;20.378;2023-04-01T07:24:33;11.31;92.39
69393;SHT31;56582;44.624;20.378;2023-04-01T07:26:59;11.41;92.01
69393;SHT31;56582;44.624;20.378;2023-04-01T07:29:25;11.42;92.88
69393;SHT31;56582;44.624;20.378;2023-04-01T07:32:17;11.64;92.41
69393;SHT31;56582;44.624;20.378;2023-04-01T07:37:41;11.89;92.53
69393;SHT31;56582;44.624;20.378;2023-04-01T07:53:56;11.62;91.94
69393;SHT31;56582;44.624;20.378;2023-04-01T07:56:38;11.68;92.20
69393;SHT31;56582;44.624;20.378;2023-04-01T08:01:52;11.78;92.64
69393;SHT31;56582;44.624;20.378;2023-04-01T08:07:26;11.81;92.60
69393;SHT31;56582;44.624;20.378;2023-04-01T08:10:22;11.75;92.30
69393;SHT31;56582;44.624;20.378;2023-04-01T08:13:07;11.86;92.35
69393;SHT31;56582;44.624;20.378;2023-04-01T08:21:11;11.97;91.91
69393;SHT31;56582;44.624;20.378;2023-04-01T08:23:44;12.09;91.41
69393;SHT31;56582;44.624;20.378;2023-04-01T08:26:30;11.96;91.06
69393;SHT31;56582;44.624;20.378;2023-04-01T08:29:01;11.87;91.86
69393;SHT31;56582;44.624;20.378;2023-04-01T08:31:30;11.85;91.78
69393;SHT31;56582;44.624;20.378;2023-04-01T08:33:57;11.92;92.07
69393;SHT31;56582;44.624;20.378;2023-04-01T08:36:38;12.05;92.50
69393;SHT31;56582;44.624;20.378;2023-04-01T08:39:45;12.06;91.91
69393;SHT31;56582;44.624;20.378;2023-04-01T08:42:47;12.00;91.40
69393;SHT31;56582;44.624;20.378;2023-04-01T09:10:49;12.40;89.97
69393;SHT31;56582;44.624;20.378;2023-04-01T09:21:59;12.60;89.83
69393;SHT31;56582;44.624;20.378;2023-04-01T09:27:26;12.71;88.90
69393;SHT31;56582;44.624;20.378;2023-04-01T09:35:39;12.67;88.72
69393;SHT31;56582;44.624;20.378;2023-04-01T09:40:58;12.88;87.17
69393;SHT31;56582;44.624;20.378;2023-04-01T09:43:30;12.96;87.61
69393;SHT31;56582;44.624;20.378;2023-04-01T09:51:50;12.81;88.47
69393;SHT31;56582;44.624;20.378;2023-04-01T10:21:09;12.84;88.69
69393;SHT31;56582;44.624;20.378;2023-04-01T10:29:28;11.72;89.04
69393;SHT31;56582;44.624;20.378;2023-04-01T10:40:51;9.98;92.80
69393;SHT31;56582;44.624;20.378;2023-04-01T10:49:16;9.60;94.03
69393;SHT31;56582;44.624;20.378;2023-04-01T11:00:57;9.60;94.05
69393;SHT31;56582;44.624;20.378;2023-04-01T11:21:21;8.97;95.59
69393;SHT31;56582;44.624;20.378;2023-04-01T11:40:51;8.95;96.36
69393;SHT31;56582;44.624;20.378;2023-04-01T11:43:28;8.98;96.75
69393;SHT31;56582;44.624;20.378;2023-04-01T11:46:11;8.92;97.01
69393;SHT31;56582;44.624;20.378;2023-04-01T11:51:31;9.00;96.08
69393;SHT31;56582;44.624;20.378;2023-04-01T11:57:41;9.05;96.18
69393;SHT31;56582;44.624;20.378;2023-04-01T12:08:13;9.12;95.00
69393;SHT31;56582;44.624;20.378;2023-04-01T12:13:43;8.98;94.76
69393;SHT31;56582;44.624;20.378;2023-04-01T12:19:12;9.10;95.39
69393;SHT31;56582;44.624;20.378;2023-04-01T12:51:10;9.40;95.40
69393;SHT31;56582;44.624;20.378;2023-04-01T13:11:36;9.28;95.41
69393;SHT31;56582;44.624;20.378;2023-04-01T13:14:43;9.23;95.59
69393;SHT31;56582;44.624;20.378;2023-04-01T13:19:39;9.18;95.51
69393;SHT31;56582;44.624;20.378;2023-04-01T13:22:23;9.25;95.43
69393;SHT31;56582;44.624;20.378;2023-04-01T13:27:40;9.15;95.27
69393;SHT31;56582;44.624;20.378;2023-04-01T13:30:34;9.18;95.35
69393;SHT31;56582;44.624;20.378;2023-04-01T13:39:05;9.12;94.86
69393;SHT31;56582;44.624;20.378;2023-04-01T13:41:55;9.16;94.43
69393;SHT31;56582;44.624;20.378;2023-04-01T14:07:22;9.01;95.87
69393;SHT31;56582;44.624;20.378;2023-04-01T14:22:10;9.19;96.09
69393;SHT31;56582;44.624;20.378;2023-04-01T14:24:57;9.21;95.79
69393;SHT31;56582;44.624;20.378;2023-04-01T14:40:54;9.33;95.56
69393;SHT31;56582;44.624;20.378;2023-04-01T14:54:03;9.31;95.67
69393;SHT31;56582;44.624;20.378;2023-04-01T14:56:47;9.35;95.51
69393;SHT31;56582;44.624;20.378;2023-04-01T15:04:50;9.69;94.83
69393;SHT31;56582;44.624;20.378;2023-04-01T15:21:11;9.80;94.60
69393;SHT31;56582;44.624;20.378;2023-04-01T15:30:11;10.12;94.01
69393;SHT31;56582;44.624;20.378;2023-04-01T15:46:52;10.72;92.60
69393;SHT31;56582;44.624;20.378;2023-04-01T15:55:17;10.80;91.96
69393;SHT31;56582;44.624;20.378;2023-04-01T16:00:52;10.68;91.67
69393;SHT31;56582;44.624;20.378;2023-04-01T16:09:15;10.87;91.20
69393;SHT31;56582;44.624;20.378;2023-04-01T16:22:08;10.99;90.58
69393;SHT31;56582;44.624;20.378;2023-04-01T16:32:40;11.00;89.45
69393;SHT31;56582;44.624;20.378;2023-04-01T16:35:46;11.07;89.59
69393;SHT31;56582;44.624;20.378;2023-04-01T16:38:26;10.92;90.00
69393;SHT31;56582;44.624;20.378;2023-04-01T16:43:52;10.96;89.85
69393;SHT31;56582;44.624;20.378;2023-04-01T16:51:52;11.25;89.11
69393;SHT31;56582;44.624;20.378;2023-04-01T16:54:52;11.03;89.20
69393;SHT31;56582;44.624;20.378;2023-04-01T16:57:57;10.86;89.50
69393;SHT31;56582;44.624;20.378;2023-04-01T17:05:48;10.83;89.59
69393;SHT31;56582;44.624;20.378;2023-04-01T17:11:02;10.89;89.18
69393;SHT31;56582;44.624;20.378;2023-04-01T17:16:36;10.75;89.59
69393;SHT31;56582;44.624;20.378;2023-04-01T17:22:12;10.48;89.47
69393;SHT31;56582;44.624;20.378;2023-04-01T17:27:50;10.65;89.64
69393;SHT31;56582;44.624;20.378;2023-04-01T17:30:40;10.75;89.16
69393;SHT31;56582;44.624;20.378;2023-04-01T17:34:00;10.75;89.09
69393;SHT31;56582;44.624;20.378;2023-04-01T17:36:19;10.72;89.44
69393;SHT31;56582;44.624;20.378;2023-04-01T17:58:01;10.56;87.83
69393;SHT31;56582;44.624;20.378;2023-04-01T18:11:43;10.45;87.62
69393;SHT31;56582;44.624;20.378;2023-04-01T18:19:39;10.45;87.20
69393;SHT31;56582;44.624;20.378;2023-04-01T18:25:22;10.39;87.47
69393;SHT31;56582;44.624;20.378;2023-04-01T18:30:35;10.22;87.21
69393;SHT31;56582;44.624;20.378;2023-04-01T18:38:12;10.21;87.39
69393;SHT31;56582;44.624;20.378;2023-04-01T18:40:42;10.18;87.35
69393;SHT31;56582;44.624;20.378;2023-04-01T18:43:32;10.14;87.18
69393;SHT31;56582;44.624;20.378;2023-04-01T18:56:41;9.98;87.33
69393;SHT31;56582;44.624;20.378;2023-04-01T18:59:19;9.95;87.52
69393;SHT31;56582;44.624;20.378;2023-04-01T19:02:04;9.97;87.24
69393;SHT31;56582;44.624;20.378;2023-04-01T19:04:45;10.05;86.89
69393;SHT31;56582;44.624;20.378;2023-04-01T19:07:42;10.02;86.79
69393;SHT31;56582;44.624;20.378;2023-04-01T19:13:30;9.95;87.01
69393;SHT31;56582;44.624;20.378;2023-04-01T19:18:47;9.80;86.95
69393;SHT31;56582;44.624;20.378;2023-04-01T19:21:35;9.86;86.86
69393;SHT31;56582;44.624;20.378;2023-04-01T19:34:59;9.81;86.65
69393;SHT31;56582;44.624;20.378;2023-04-01T19:37:50;9.57;86.95
69393;SHT31;56582;44.624;20.378;2023-04-01T19:51:55;9.86;86.24
69393;SHT31;56582;44.624;20.378;2023-04-01T19:54:47;9.80;86.44
69393;SHT31;56582;44.624;20.378;2023-04-01T19:59:59;9.76;86.28
69393;SHT31;56582;44.624;20.378;2023-04-01T20:02:30;9.74;86.27
69393;SHT31;56582;44.624;20.378;2023-04-01T20:05:04;9.53;86.50
69393;SHT31;56582;44.624;20.378;2023-04-01T20:07:41;9.57;86.91
69393;SHT31;56582;44.624;20.378;2023-04-01T20:10:17;9.66;86.57
69393;SHT31;56582;44.624;20.378;2023-04-01T20:15:40;9.79;85.86
69393;SHT31;56582;44.624;20.378;2023-04-01T20:18:16;9.79;85.99
69393;SHT31;56582;44.624;20.378;2023-04-01T20:20:57;9.70;86.06
69393;SHT31;56582;44.624;20.378;2023-04-01T20:23:39;9.74;86.30
69393;SHT31;56582;44.624;20.378;2023-04-01T20:26:12;9.77;86.00
69393;SHT31;56582;44.624;20.378;2023-04-01T20:29:17;9.80;86.02
69393;SHT31;56582;44.624;20.378;2023-04-01T20:32:40;9.71;86.15
69393;SHT31;56582;44.624;20.378;2023-04-01T20:34:45;9.84;85.99
69393;SHT31;56582;44.624;20.378;2023-04-01T20:40:17;9.90;85.64
69393;SHT31;56582;44.624;20.378;2023-04-01T20:43:30;9.86;85.35
69393;SHT31;56582;44.624;20.378;2023-04-01T20:45:41;9.86;85.60
69393;SHT31;56582;44.624;20.378;2023-04-01T20:51:18;9.70;85.33
69393;SHT31;56582;44.624;20.378;2023-04-01T20:53:55;9.57;85.78
69393;SHT31;56582;44.624;20.378;2023-04-01T21:02:19;9.57;85.91
69393;SHT31;56582;44.624;20.378;2023-04-01T21:07:49;9.57;86.06
69393;SHT31;56582;44.624;20.378;2023-04-01T21:22:08;9.46;86.25
69393;SHT31;56582;44.624;20.378;2023-04-01T21:24:48;9.29;86.77
69393;SHT31;56582;44.624;20.378;2023-04-01T21:27:37;9.31;86.57
69393;SHT31;56582;44.624;20.378;2023-04-01T21:44:32;9.10;86.57
69393;SHT31;56582;44.624;20.378;2023-04-01T21:47:19;8.92;86.97
69393;SHT31;56582;44.624;20.378;2023-04-01T22:09:32;8.74;87.03
69393;SHT31;56582;44.624;20.378;2023-04-01T22:12:07;8.91;86.52
69393;SHT31;56582;44.624;20.378;2023-04-01T22:14:51;9.01;85.94
69393;SHT31;56582;44.624;20.378;2023-04-01T22:20:06;8.73;86.06
69393;SHT31;56582;44.624;20.378;2023-04-01T22:31:30;8.68;86.63
69393;SHT31;56582;44.624;20.378;2023-04-01T22:36:44;8.71;86.58
69393;SHT31;56582;44.624;20.378;2023-04-01T22:47:33;8.71;86.20
69393;SHT31;56582;44.624;20.378;2023-04-01T22:50:28;8.64;86.45
69393;SHT31;56582;44.624;20.378;2023-04-01T22:55:46;8.78;86.43
69393;SHT31;56582;44.624;20.378;2023-04-01T22:58:17;8.73;86.59
69393;SHT31;56582;44.624;20.378;2023-04-01T23:00:48;8.75;86.54
69393;SHT31;56582;44.624;20.378;2023-04-01T23:03:22;8.70;86.27
69393;SHT31;56582;44.624;20.378;2023-04-01T23:05:54;8.65;86.72
69393;SHT31;56582;44.624;20.378;2023-04-01T23:11:21;8.92;86.23
69393;SHT31;56582;44.624;20.378;2023-04-01T23:13:57;8.87;86.30
69393;SHT31;56582;44.624;20.378;2023-04-01T23:16:35;8.80;86.30
69393;SHT31;56582;44.624;20.378;2023-04-01T23:19:18;8.81;86.34
69393;SHT31;56582;44.624;20.378;2023-04-01T23:21:51;8.81;85.93
69393;SHT31;56582;44.624;20.378;2023-04-01T23:24:26;8.73;85.92
69393;SHT31;56582;44.624;20.378;2023-04-01T23:29:26;8.64;85.64
69393;SHT31;56582;44.624;20.378;2023-04-01T23:32:13;8.60;85.68
69393;SHT31;56582;44.624;20.378;2023-04-01T23:34:46;8.47;85.83
69393;SHT31;56582;44.624;20.378;2023-04-01T23:37:13;8.47;85.62
69393;SHT31;56582;44.624;20.378;2023-04-01T23:39:44;8.44;85.81
69393;SHT31;56582;44.624;20.378;2023-04-01T23:42:27;8.57;85.81
69393;SHT31;56582;44.624;20.378;2023-04-01T23:44:56;8.70;85.54
69393;SHT31;56582;44.624;20.378;2023-04-01T23:47:26;8.74;85.53
69393;SHT31;56582;44.624;20.378;2023-04-01T23:50:04;8.52;85.78
69393;SHT31;56582;44.624;20.378;2023-04-01T23:52:39;8.44;85.94
69393;SHT31;56582;44.624;20.378;2023-04-01T23:55:21;8.37;86.21
